sensor_id;sensor_type;location;lat;lon;timestamp;P1;durP1;ratioP1;P2;durP2;ratioP2
29906;SDS011;16776;50.958;10.994;2024-01-11T00:01:13;23.30;;;11.20;;
29906;SDS011;16776;50.958;10.994;2024-01-11T00:03:40;27.17;;;12.75;;
29906;SDS011;16776;50.958;10.994;2024-01-11T00:06:08;31.35;;;14.00;;
29906;SDS011;16776;50.958;10.994;2024-01-11T00:08:34;26.92;;;12.27;;
29906;SDS011;16776;50.958;10.994;2024-01-11T00:11:01;26.80;;;12.60;;
29906;SDS011;16776;50.958;10.994;2024-01-11T00:13:28;32.85;;;14.20;;
29906;SDS011;16776;50.958;10.994;2024-01-11T00:15:55;23.92;;;11.88;;
29906;SDS011;16776;50.958;10.994;2024-01-11T00:18:21;31.48;;;13.27;;
29906;SDS011;16776;50.958;10.994;2024-01-11T00:20:48;27.80;;;13.73;;
29906;SDS011;16776;50.958;10.994;2024-01-11T00:23:16;30.35;;;13.50;;
29906;SDS011;16776;50.958;10.994;2024-01-11T00:25:43;31.92;;;13.82;;
29906;SDS011;16776;50.958;10.994;2024-01-11T00:28:09;27.55;;;12.68;;
29906;SDS011;16776;50.958;10.994;2024-01-11T00:30:36;29.48;;;12.93;;
29906;SDS011;16776;50.958;10.994;2024-01-11T00:33:02;30.48;;;14.13;;
29906;SDS011;16776;50.958;10.994;2024-01-11T00:35:29;25.83;;;13.68;;
29906;SDS011;16776;50.958;10.994;2024-01-11T00:37:56;22.05;;;10.88;;
29906;SDS011;16776;50.958;10.994;2024-01-11T00:40:24;23.88;;;10.73;;
29906;SDS011;16776;50.958;10.994;2024-01-11T00:42:50;27.23;;;12.88;;
29906;SDS011;16776;50.958;10.994;2024-01-11T00:45:17;24.77;;;12.15;;
29906;SDS011;16776;50.958;10.994;2024-01-11T00:47:44;28.60;;;13.88;;
29906;SDS011;16776;50.958;10.994;2024-01-11T00:50:11;22.80;;;12.50;;
29906;SDS011;16776;50.958;10.994;2024-01-11T00:52:38;29.85;;;12.52;;
29906;SDS011;16776;50.958;10.994;2024-01-11T00:55:05;28.40;;;12.55;;
29906;SDS011;16776;50.958;10.994;2024-01-11T00:57:33;22.92;;;10.50;;
29906;SDS011;16776;50.958;10.994;2024-01-11T01:00:00;31.95;;;14.10;;
29906;SDS011;16776;50.958;10.994;2024-01-11T01:02:26;23.25;;;10.18;;
29906;SDS011;16776;50.958;10.994;2024-01-11T01:04:53;27.13;;;13.73;;
29906;SDS011;16776;50.958;10.994;2024-01-11T01:07:19;23.73;;;10.32;;
29906;SDS011;16776;50.958;10.994;2024-01-11T01:09:46;29.92;;;15.13;;
29906;SDS011;16776;50.958;10.994;2024-01-11T01:12:12;28.08;;;12.38;;
29906;SDS011;16776;50.958;10.994;2024-01-11T01:14:40;27.40;;;12.38;;
29906;SDS011;16776;50.958;10.994;2024-01-11T01:17:07;32.15;;;13.73;;
29906;SDS011;16776;50.958;10.994;2024-01-11T01:19:33;29.15;;;13.48;;
29906;SDS011;16776;50.958;10.994;2024-01-11T01:22:00;26.42;;;12.65;;
29906;SDS011;16776;50.958;10.994;2024-01-11T01:24:27;29.52;;;13.75;;
29906;SDS011;16776;50.958;10.994;2024-01-11T01:26:53;24.98;;;14.32;;
29906;SDS011;16776;50.958;10.994;2024-01-11T01:29:20;30.15;;;12.48;;
29906;SDS011;16776;50.958;10.994;2024-01-11T01:31:48;27.35;;;12.25;;
29906;SDS011;16776;50.958;10.994;2024-01-11T01:34:14;32.33;;;14.25;;
29906;SDS011;16776;50.958;10.994;2024-01-11T01:36:41;26.70;;;12.48;;
29906;SDS011;16776;50.958;10.994;2024-01-11T01:39:07;35.65;;;14.38;;
29906;SDS011;16776;50.958;10.994;2024-01-11T01:41:34;29.45;;;13.57;;
29906;SDS011;16776;50.958;10.994;2024-01-11T01:44:00;33.17;;;16.05;;
29906;SDS011;16776;50.958;10.994;2024-01-11T01:46:27;33.53;;;13.98;;
29906;SDS011;16776;50.958;10.994;2024-01-11T01:48:56;30.45;;;14.65;;
29906;SDS011;16776;50.958;10.994;2024-01-11T01:51:24;35.25;;;14.82;;
29906;SDS011;16776;50.958;10.994;2024-01-11T01:53:54;30.98;;;13.82;;
29906;SDS011;16776;50.958;10.994;2024-01-11T01:56:23;32.78;;;13.80;;
29906;SDS011;16776;50.958;10.994;2024-01-11T01:58:50;33.70;;;15.95;;
29906;SDS011;16776;50.958;10.994;2024-01-11T02:01:19;32.70;;;15.25;;
29906;SDS011;16776;50.958;10.994;2024-01-11T02:03:48;33.85;;;15.07;;
29906;SDS011;16776;50.958;10.994;2024-01-11T02:06:18;23.77;;;13.07;;
29906;SDS011;16776;50.958;10.994;2024-01-11T02:08:47;29.80;;;14.07;;
29906;SDS011;16776;50.958;10.994;2024-01-11T02:11:15;30.05;;;14.77;;
29906;SDS011;16776;50.958;10.994;2024-01-11T02:13:42;31.30;;;14.10;;
29906;SDS011;16776;50.958;10.994;2024-01-11T02:16:09;26.83;;;13.07;;
29906;SDS011;16776;50.958;10.994;2024-01-11T02:18:37;26.05;;;13.25;;
29906;SDS011;16776;50.958;10.994;2024-01-11T02:21:05;26.02;;;12.25;;
29906;SDS011;16776;50.958;10.994;2024-01-11T02:23:39;22.15;;;10.75;;
29906;SDS011;16776;50.958;10.994;2024-01-11T02:26:12;22.38;;;11.00;;
29906;SDS011;16776;50.958;10.994;2024-01-11T02:28:42;25.85;;;11.73;;
29906;SDS011;16776;50.958;10.994;2024-01-11T02:31:09;21.70;;;10.20;;
29906;SDS011;16776;50.958;10.994;2024-01-11T02:33:36;22.88;;;10.68;;
29906;SDS011;16776;50.958;10.994;2024-01-11T02:36:03;19.77;;;9.88;;
29906;SDS011;16776;50.958;10.994;2024-01-11T02:38:30;21.15;;;10.50;;
29906;SDS011;16776;50.958;10.994;2024-01-11T02:40:58;28.38;;;12.10;;
29906;SDS011;16776;50.958;10.994;2024-01-11T02:43:26;22.08;;;11.20;;
29906;SDS011;16776;50.958;10.994;2024-01-11T02:45:53;22.65;;;9.40;;
29906;SDS011;16776;50.958;10.994;2024-01-11T02:48:20;24.70;;;10.95;;
29906;SDS011;16776;50.958;10.994;2024-01-11T02:50:47;21.85;;;9.57;;
29906;SDS011;16776;50.958;10.994;2024-01-11T02:53:14;23.65;;;10.70;;
29906;SDS011;16776;50.958;10.994;2024-01-11T02:55:41;21.27;;;9.75;;
29906;SDS011;16776;50.958;10.994;2024-01-11T02:58:07;24.60;;;11.00;;
29906;SDS011;16776;50.958;10.994;2024-01-11T03:00:35;21.58;;;8.68;;
29906;SDS011;16776;50.958;10.994;2024-01-11T03:03:02;22.17;;;10.65;;
29906;SDS011;16776;50.958;10.994;2024-01-11T03:05:29;18.67;;;9.43;;
29906;SDS011;16776;50.958;10.994;2024-01-11T03:07:55;24.48;;;9.88;;
29906;SDS011;16776;50.958;10.994;2024-01-11T03:10:22;19.17;;;9.80;;
29906;SDS011;16776;50.958;10.994;2024-01-11T03:12:48;23.02;;;9.48;;
29906;SDS011;16776;50.958;10.994;2024-01-11T03:15:15;24.52;;;10.82;;
29906;SDS011;16776;50.958;10.994;2024-01-11T03:17:43;22.08;;;10.60;;
29906;SDS011;16776;50.958;10.994;2024-01-11T03:20:10;25.83;;;12.02;;
29906;SDS011;16776;50.958;10.994;2024-01-11T03:22:37;22.85;;;11.60;;
29906;SDS011;16776;50.958;10.994;2024-01-11T03:25:11;19.73;;;9.93;;
29906;SDS011;16776;50.958;10.994;2024-01-11T03:27:38;19.42;;;9.80;;
29906;SDS011;16776;50.958;10.994;2024-01-11T03:30:05;22.98;;;10.20;;
29906;SDS011;16776;50.958;10.994;2024-01-11T03:32:32;23.15;;;11.00;;
29906;SDS011;16776;50.958;10.994;2024-01-11T03:35:00;26.80;;;11.23;;
29906;SDS011;16776;50.958;10.994;2024-01-11T03:37:27;19.63;;;10.35;;
29906;SDS011;16776;50.958;10.994;2024-01-11T03:39:53;20.90;;;10.38;;
29906;SDS011;16776;50.958;10.994;2024-01-11T03:42:20;22.17;;;10.07;;
29906;SDS011;16776;50.958;10.994;2024-01-11T03:44:46;22.52;;;10.18;;
29906;SDS011;16776;50.958;10.994;2024-01-11T03:47:13;23.73;;;12.30;;
29906;SDS011;16776;50.958;10.994;2024-01-11T03:49:39;22.27;;;10.40;;
29906;SDS011;16776;50.958;10.994;2024-01-11T03:52:07;23.05;;;11.85;;
29906;SDS011;16776;50.958;10.994;2024-01-11T03:54:34;22.02;;;11.35;;
29906;SDS011;16776;50.958;10.994;2024-01-11T03:57:01;18.77;;;10.10;;
29906;SDS011;16776;50.958;10.994;2024-01-11T03:59:27;23.15;;;10.27;;
29906;SDS011;16776;50.958;10.994;2024-01-11T04:01:54;23.88;;;11.50;;
29906;SDS011;16776;50.958;10.994;2024-01-11T04:04:21;22.70;;;10.70;;
29906;SDS011;16776;50.958;10.994;2024-01-11T04:06:48;19.67;;;10.15;;
29906;SDS011;16776;50.958;10.994;2024-01-11T04:09:16;26.30;;;11.68;;
29906;SDS011;16776;50.958;10.994;2024-01-11T04:11:42;30.50;;;13.90;;
29906;SDS011;16776;50.958;10.994;2024-01-11T04:14:09;32.83;;;13.63;;
29906;SDS011;16776;50.958;10.994;2024-01-11T04:16:39;33.67;;;14.55;;
29906;SDS011;16776;50.958;10.994;2024-01-11T04:19:06;34.38;;;13.75;;
29906;SDS011;16776;50.958;10.994;2024-01-11T04:21:33;29.75;;;13.80;;
29906;SDS011;16776;50.958;10.994;2024-01-11T04:23:59;32.97;;;14.60;;
29906;SDS011;16776;50.958;10.994;2024-01-11T04:26:27;33.17;;;12.75;;
29906;SDS011;16776;50.958;10.994;2024-01-11T04:28:54;27.77;;;13.93;;
29906;SDS011;16776;50.958;10.994;2024-01-11T04:31:23;27.02;;;11.60;;
29906;SDS011;16776;50.958;10.994;2024-01-11T04:33:49;26.98;;;11.73;;
29906;SDS011;16776;50.958;10.994;2024-01-11T04:36:16;31.48;;;15.20;;
29906;SDS011;16776;50.958;10.994;2024-01-11T04:38:42;47.20;;;18.58;;
29906;SDS011;16776;50.958;10.994;2024-01-11T04:41:09;33.15;;;14.60;;
29906;SDS011;16776;50.958;10.994;2024-01-11T04:43:38;40.08;;;15.60;;
29906;SDS011;16776;50.958;10.994;2024-01-11T04:46:12;42.72;;;18.35;;
29906;SDS011;16776;50.958;10.994;2024-01-11T04:48:40;47.08;;;19.67;;
29906;SDS011;16776;50.958;10.994;2024-01-11T04:51:07;43.65;;;18.52;;
29906;SDS011;16776;50.958;10.994;2024-01-11T04:53:35;47.03;;;19.30;;
29906;SDS011;16776;50.958;10.994;2024-01-11T04:56:03;41.35;;;16.52;;
29906;SDS011;16776;50.958;10.994;2024-01-11T04:58:29;40.63;;;16.58;;
29906;SDS011;16776;50.958;10.994;2024-01-11T05:00:57;48.90;;;19.92;;
29906;SDS011;16776;50.958;10.994;2024-01-11T05:03:24;51.95;;;19.60;;
29906;SDS011;16776;50.958;10.994;2024-01-11T05:05:50;50.15;;;18.23;;
29906;SDS011;16776;50.958;10.994;2024-01-11T05:08:17;42.47;;;16.70;;
29906;SDS011;16776;50.958;10.994;2024-01-11T05:10:43;44.53;;;17.80;;
29906;SDS011;16776;50.958;10.994;2024-01-11T05:13:10;29.27;;;15.27;;
29906;SDS011;16776;50.958;10.994;2024-01-11T05:15:37;34.45;;;12.80;;
29906;SDS011;16776;50.958;10.994;2024-01-11T05:18:05;28.20;;;12.27;;
29906;SDS011;16776;50.958;10.994;2024-01-11T05:20:31;29.20;;;11.52;;
29906;SDS011;16776;50.958;10.994;2024-01-11T05:22:58;26.00;;;11.98;;
29906;SDS011;16776;50.958;10.994;2024-01-11T05:25:25;24.85;;;12.25;;
29906;SDS011;16776;50.958;10.994;2024-01-11T05:27:52;23.02;;;10.68;;
29906;SDS011;16776;50.958;10.994;2024-01-11T05:30:19;23.85;;;10.30;;
29906;SDS011;16776;50.958;10.994;2024-01-11T05:32:45;16.17;;;8.38;;
29906;SDS011;16776;50.958;10.994;2024-01-11T05:35:13;20.13;;;10.15;;
29906;SDS011;16776;50.958;10.994;2024-01-11T05:37:40;18.48;;;9.05;;
29906;SDS011;16776;50.958;10.994;2024-01-11T05:40:07;19.23;;;9.20;;
29906;SDS011;16776;50.958;10.994;2024-01-11T05:42:34;15.90;;;8.80;;
29906;SDS011;16776;50.958;10.994;2024-01-11T05:45:02;19.33;;;9.70;;
29906;SDS011;16776;50.958;10.994;2024-01-11T05:47:29;26.00;;;11.18;;
29906;SDS011;16776;50.958;10.994;2024-01-11T05:49:56;31.52;;;13.25;;
29906;SDS011;16776;50.958;10.994;2024-01-11T05:52:24;31.55;;;13.60;;
29906;SDS011;16776;50.958;10.994;2024-01-11T05:54:51;19.63;;;9.48;;
29906;SDS011;16776;50.958;10.994;2024-01-11T05:57:17;27.48;;;12.57;;
29906;SDS011;16776;50.958;10.994;2024-01-11T05:59:44;25.77;;;10.15;;
29906;SDS011;16776;50.958;10.994;2024-01-11T06:02:12;30.20;;;13.48;;
29906;SDS011;16776;50.958;10.994;2024-01-11T06:04:38;31.52;;;14.65;;
29906;SDS011;16776;50.958;10.994;2024-01-11T06:07:05;31.17;;;13.70;;
29906;SDS011;16776;50.958;10.994;2024-01-11T06:09:33;34.35;;;14.50;;
29906;SDS011;16776;50.958;10.994;2024-01-11T06:11:59;31.50;;;12.98;;
29906;SDS011;16776;50.958;10.994;2024-01-11T06:14:26;32.28;;;13.73;;
29906;SDS011;16776;50.958;10.994;2024-01-11T06:16:53;36.05;;;17.25;;
29906;SDS011;16776;50.958;10.994;2024-01-11T06:19:20;33.25;;;14.63;;
29906;SDS011;16776;50.958;10.994;2024-01-11T06:21:46;25.77;;;12.23;;
29906;SDS011;16776;50.958;10.994;2024-01-11T06:24:13;37.58;;;15.93;;
29906;SDS011;16776;50.958;10.994;2024-01-11T06:26:41;39.88;;;16.45;;
29906;SDS011;16776;50.958;10.994;2024-01-11T06:29:07;34.03;;;15.23;;
29906;SDS011;16776;50.958;10.994;2024-01-11T06:31:34;43.15;;;16.52;;
29906;SDS011;16776;50.958;10.994;2024-01-11T06:34:00;31.55;;;13.13;;
29906;SDS011;16776;50.958;10.994;2024-01-11T06:36:27;35.40;;;15.48;;
29906;SDS011;16776;50.958;10.994;2024-01-11T06:38:54;32.88;;;14.95;;
29906;SDS011;16776;50.958;10.994;2024-01-11T06:41:20;35.38;;;15.40;;
29906;SDS011;16776;50.958;10.994;2024-01-11T06:43:48;27.45;;;12.40;;
29906;SDS011;16776;50.958;10.994;2024-01-11T06:46:19;23.98;;;11.30;;
29906;SDS011;16776;50.958;10.994;2024-01-11T06:48:46;24.15;;;10.13;;
29906;SDS011;16776;50.958;10.994;2024-01-11T06:51:14;21.38;;;10.30;;
29906;SDS011;16776;50.958;10.994;2024-01-11T06:53:41;27.77;;;11.18;;
29906;SDS011;16776;50.958;10.994;2024-01-11T06:56:13;23.90;;;11.77;;
29906;SDS011;16776;50.958;10.994;2024-01-11T06:58:40;21.55;;;9.57;;
29906;SDS011;16776;50.958;10.994;2024-01-11T07:01:09;25.25;;;11.10;;
29906;SDS011;16776;50.958;10.994;2024-01-11T07:03:35;22.35;;;11.40;;
29906;SDS011;16776;50.958;10.994;2024-01-11T07:06:02;31.23;;;11.85;;
29906;SDS011;16776;50.958;10.994;2024-01-11T07:08:29;23.00;;;11.52;;
29906;SDS011;16776;50.958;10.994;2024-01-11T07:10:57;23.65;;;10.20;;
29906;SDS011;16776;50.958;10.994;2024-01-11T07:13:24;23.38;;;8.73;;
29906;SDS011;16776;50.958;10.994;2024-01-11T07:15:51;25.33;;;10.00;;
29906;SDS011;16776;50.958;10.994;2024-01-11T07:18:19;22.17;;;9.65;;
29906;SDS011;16776;50.958;10.994;2024-01-11T07:20:45;24.02;;;10.20;;
29906;SDS011;16776;50.958;10.994;2024-01-11T07:23:12;21.17;;;10.48;;
29906;SDS011;16776;50.958;10.994;2024-01-11T07:25:39;19.02;;;8.95;;
29906;SDS011;16776;50.958;10.994;2024-01-11T07:28:06;22.13;;;10.85;;
29906;SDS011;16776;50.958;10.994;2024-01-11T07:30:32;22.45;;;10.80;;
29906;SDS011;16776;50.958;10.994;2024-01-11T07:32:59;29.92;;;11.60;;
29906;SDS011;16776;50.958;10.994;2024-01-11T07:35:27;23.60;;;10.48;;
29906;SDS011;16776;50.958;10.994;2024-01-11T07:37:54;20.42;;;9.73;;
29906;SDS011;16776;50.958;10.994;2024-01-11T07:40:21;24.58;;;10.85;;
29906;SDS011;16776;50.958;10.994;2024-01-11T07:42:48;28.58;;;12.98;;
29906;SDS011;16776;50.958;10.994;2024-01-11T07:45:14;28.67;;;13.02;;
29906;SDS011;16776;50.958;10.994;2024-01-11T07:47:42;25.45;;;13.23;;
29906;SDS011;16776;50.958;10.994;2024-01-11T07:50:09;32.65;;;14.80;;
29906;SDS011;16776;50.958;10.994;2024-01-11T07:52:37;32.70;;;14.85;;
29906;SDS011;16776;50.958;10.994;2024-01-11T07:55:08;34.28;;;16.17;;
29906;SDS011;16776;50.958;10.994;2024-01-11T07:57:37;39.20;;;16.98;;
29906;SDS011;16776;50.958;10.994;2024-01-11T08:00:04;31.50;;;14.48;;
29906;SDS011;16776;50.958;10.994;2024-01-11T08:02:32;52.35;;;19.08;;
29906;SDS011;16776;50.958;10.994;2024-01-11T08:04:59;43.42;;;17.75;;
29906;SDS011;16776;50.958;10.994;2024-01-11T08:07:26;44.38;;;20.05;;
29906;SDS011;16776;50.958;10.994;2024-01-11T08:09:54;36.80;;;17.70;;
29906;SDS011;16776;50.958;10.994;2024-01-11T08:12:21;36.72;;;15.50;;
29906;SDS011;16776;50.958;10.994;2024-01-11T08:14:47;31.88;;;14.68;;
29906;SDS011;16776;50.958;10.994;2024-01-11T08:17:14;34.90;;;14.35;;
29906;SDS011;16776;50.958;10.994;2024-01-11T08:19:41;25.67;;;11.75;;
29906;SDS011;16776;50.958;10.994;2024-01-11T08:22:08;30.50;;;12.55;;
29906;SDS011;16776;50.958;10.994;2024-01-11T08:24:35;24.98;;;12.90;;
29906;SDS011;16776;50.958;10.994;2024-01-11T08:27:03;22.55;;;11.60;;
29906;SDS011;16776;50.958;10.994;2024-01-11T08:29:30;19.95;;;9.55;;
29906;SDS011;16776;50.958;10.994;2024-01-11T08:31:58;30.50;;;14.23;;
29906;SDS011;16776;50.958;10.994;2024-01-11T08:34:26;23.08;;;11.23;;
29906;SDS011;16776;50.958;10.994;2024-01-11T08:36:52;27.42;;;12.27;;
29906;SDS011;16776;50.958;10.994;2024-01-11T08:39:19;24.80;;;10.32;;
29906;SDS011;16776;50.958;10.994;2024-01-11T08:41:46;29.83;;;12.20;;
29906;SDS011;16776;50.958;10.994;2024-01-11T08:44:14;29.70;;;13.68;;
29906;SDS011;16776;50.958;10.994;2024-01-11T08:46:41;24.08;;;10.52;;
29906;SDS011;16776;50.958;10.994;2024-01-11T08:49:09;26.60;;;10.57;;
29906;SDS011;16776;50.958;10.994;2024-01-11T08:51:35;24.88;;;11.25;;
29906;SDS011;16776;50.958;10.994;2024-01-11T08:54:02;21.67;;;9.63;;
29906;SDS011;16776;50.958;10.994;2024-01-11T08:56:29;26.02;;;11.35;;
29906;SDS011;16776;50.958;10.994;2024-01-11T08:58:55;21.13;;;10.82;;
29906;SDS011;16776;50.958;10.994;2024-01-11T09:01:24;24.45;;;9.82;;
29906;SDS011;16776;50.958;10.994;2024-01-11T09:03:51;26.85;;;10.93;;
29906;SDS011;16776;50.958;10.994;2024-01-11T09:06:17;30.00;;;12.30;;
29906;SDS011;16776;50.958;10.994;2024-01-11T09:08:44;25.48;;;12.02;;
29906;SDS011;16776;50.958;10.994;2024-01-11T09:11:10;28.67;;;13.57;;
29906;SDS011;16776;50.958;10.994;2024-01-11T09:13:37;29.75;;;13.20;;
29906;SDS011;16776;50.958;10.994;2024-01-11T09:16:05;31.65;;;14.30;;
29906;SDS011;16776;50.958;10.994;2024-01-11T09:18:34;28.90;;;12.95;;
29906;SDS011;16776;50.958;10.994;2024-01-11T09:21:00;33.67;;;14.07;;
29906;SDS011;16776;50.958;10.994;2024-01-11T09:23:27;36.08;;;14.52;;
29906;SDS011;16776;50.958;10.994;2024-01-11T09:25:54;33.13;;;14.10;;
29906;SDS011;16776;50.958;10.994;2024-01-11T09:28:20;26.42;;;13.50;;
29906;SDS011;16776;50.958;10.994;2024-01-11T09:30:47;28.80;;;13.15;;
29906;SDS011;16776;50.958;10.994;2024-01-11T09:33:13;30.42;;;14.15;;
29906;SDS011;16776;50.958;10.994;2024-01-11T09:35:41;33.38;;;14.45;;
29906;SDS011;16776;50.958;10.994;2024-01-11T09:38:08;34.08;;;13.68;;
29906;SDS011;16776;50.958;10.994;2024-01-11T09:40:35;32.97;;;14.02;;
29906;SDS011;16776;50.958;10.994;2024-01-11T09:43:03;28.15;;;14.18;;
29906;SDS011;16776;50.958;10.994;2024-01-11T09:45:30;36.95;;;12.60;;
29906;SDS011;16776;50.958;10.994;2024-01-11T09:47:57;30.70;;;14.00;;
29906;SDS011;16776;50.958;10.994;2024-01-11T09:50:24;33.05;;;15.55;;
29906;SDS011;16776;50.958;10.994;2024-01-11T09:52:52;28.73;;;14.57;;
29906;SDS011;16776;50.958;10.994;2024-01-11T09:55:19;31.98;;;14.80;;
29906;SDS011;16776;50.958;10.994;2024-01-11T09:57:46;30.95;;;14.32;;
29906;SDS011;16776;50.958;10.994;2024-01-11T10:00:16;27.98;;;14.43;;
29906;SDS011;16776;50.958;10.994;2024-01-11T10:02:44;32.25;;;14.40;;
29906;SDS011;16776;50.958;10.994;2024-01-11T10:05:11;26.40;;;13.38;;
29906;SDS011;16776;50.958;10.994;2024-01-11T10:07:39;35.03;;;14.65;;
29906;SDS011;16776;50.958;10.994;2024-01-11T10:10:08;27.83;;;13.50;;
29906;SDS011;16776;50.958;10.994;2024-01-11T10:12:35;29.75;;;15.02;;
29906;SDS011;16776;50.958;10.994;2024-01-11T10:15:05;29.90;;;14.05;;
29906;SDS011;16776;50.958;10.994;2024-01-11T10:17:34;18.35;;;8.45;;
29906;SDS011;16776;50.958;10.994;2024-01-11T10:20:01;24.95;;;12.40;;
29906;SDS011;16776;50.958;10.994;2024-01-11T10:22:28;28.08;;;15.20;;
29906;SDS011;16776;50.958;10.994;2024-01-11T10:25:08;27.60;;;14.00;;
29906;SDS011;16776;50.958;10.994;2024-01-11T10:27:37;28.88;;;14.52;;
29906;SDS011;16776;50.958;10.994;2024-01-11T10:30:04;35.38;;;17.02;;
29906;SDS011;16776;50.958;10.994;2024-01-11T10:32:33;36.70;;;18.13;;
29906;SDS011;16776;50.958;10.994;2024-01-11T10:34:59;35.60;;;17.30;;
29906;SDS011;16776;50.958;10.994;2024-01-11T10:37:28;35.47;;;16.27;;
29906;SDS011;16776;50.958;10.994;2024-01-11T10:39:57;36.58;;;17.15;;
29906;SDS011;16776;50.958;10.994;2024-01-11T10:42:25;37.60;;;17.45;;
29906;SDS011;16776;50.958;10.994;2024-01-11T10:44:54;30.40;;;14.38;;
29906;SDS011;16776;50.958;10.994;2024-01-11T10:47:22;35.03;;;15.52;;
29906;SDS011;16776;50.958;10.994;2024-01-11T10:49:52;31.55;;;16.00;;
29906;SDS011;16776;50.958;10.994;2024-01-11T10:52:20;33.17;;;16.75;;
29906;SDS011;16776;50.958;10.994;2024-01-11T10:54:54;30.35;;;15.10;;
29906;SDS011;16776;50.958;10.994;2024-01-11T10:57:25;29.60;;;13.63;;
29906;SDS011;16776;50.958;10.994;2024-01-11T10:59:53;30.50;;;15.88;;
29906;SDS011;16776;50.958;10.994;2024-01-11T11:02:21;35.05;;;17.17;;
29906;SDS011;16776;50.958;10.994;2024-01-11T11:04:48;33.50;;;14.32;;
29906;SDS011;16776;50.958;10.994;2024-01-11T11:07:17;33.65;;;16.42;;
29906;SDS011;16776;50.958;10.994;2024-01-11T11:09:45;40.70;;;18.42;;
29906;SDS011;16776;50.958;10.994;2024-01-11T11:12:15;36.58;;;18.27;;
29906;SDS011;16776;50.958;10.994;2024-01-11T11:14:45;36.80;;;17.67;;
29906;SDS011;16776;50.958;10.994;2024-01-11T11:17:14;33.88;;;15.45;;
29906;SDS011;16776;50.958;10.994;2024-01-11T11:19:41;29.88;;;14.35;;
29906;SDS011;16776;50.958;10.994;2024-01-11T11:22:08;30.17;;;14.20;;
29906;SDS011;16776;50.958;10.994;2024-01-11T11:24:34;23.77;;;12.60;;
29906;SDS011;16776;50.958;10.994;2024-01-11T11:27:01;26.70;;;13.77;;
29906;SDS011;16776;50.958;10.994;2024-01-11T11:29:28;27.25;;;14.35;;
29906;SDS011;16776;50.958;10.994;2024-01-11T11:31:56;26.00;;;14.00;;
29906;SDS011;16776;50.958;10.994;2024-01-11T11:37:06;23.45;;;11.60;;
29906;SDS011;16776;50.958;10.994;2024-01-11T11:39:32;27.45;;;13.15;;
29906;SDS011;16776;50.958;10.994;2024-01-11T11:41:59;31.88;;;15.65;;
29906;SDS011;16776;50.958;10.994;2024-01-11T11:44:26;35.10;;;17.50;;
29906;SDS011;16776;50.958;10.994;2024-01-11T11:46:53;36.80;;;17.27;;
29906;SDS011;16776;50.958;10.994;2024-01-11T11:49:21;23.65;;;13.35;;
29906;SDS011;16776;50.958;10.994;2024-01-11T11:52:13;29.25;;;14.85;;
29906;SDS011;16776;50.958;10.994;2024-01-11T11:54:40;29.77;;;15.52;;
29906;SDS011;16776;50.958;10.994;2024-01-11T11:57:08;30.45;;;14.27;;
29906;SDS011;16776;50.958;10.994;2024-01-11T11:59:36;25.40;;;13.93;;
29906;SDS011;16776;50.958;10.994;2024-01-11T12:02:03;25.13;;;14.07;;
29906;SDS011;16776;50.958;10.994;2024-01-11T12:04:34;28.30;;;14.02;;
29906;SDS011;16776;50.958;10.994;2024-01-11T12:07:05;31.70;;;13.82;;
29906;SDS011;16776;50.958;10.994;2024-01-11T12:09:31;26.27;;;13.55;;
29906;SDS011;16776;50.958;10.994;2024-01-11T12:11:59;29.58;;;14.40;;
29906;SDS011;16776;50.958;10.994;2024-01-11T12:14:25;26.42;;;14.30;;
29906;SDS011;16776;50.958;10.994;2024-01-11T12:16:55;31.85;;;14.82;;
29906;SDS011;16776;50.958;10.994;2024-01-11T12:19:22;27.42;;;14.85;;
29906;SDS011;16776;50.958;10.994;2024-01-11T12:21:51;27.58;;;13.30;;
29906;SDS011;16776;50.958;10.994;2024-01-11T12:24:18;31.25;;;15.93;;
29906;SDS011;16776;50.958;10.994;2024-01-11T12:26:46;28.23;;;14.35;;
29906;SDS011;16776;50.958;10.994;2024-01-11T12:29:15;32.50;;;15.02;;
29906;SDS011;16776;50.958;10.994;2024-01-11T12:31:43;29.77;;;16.25;;
29906;SDS011;16776;50.958;10.994;2024-01-11T12:34:10;28.83;;;15.88;;
29906;SDS011;16776;50.958;10.994;2024-01-11T12:36:38;26.10;;;13.65;;
29906;SDS011;16776;50.958;10.994;2024-01-11T12:39:06;28.42;;;13.68;;
29906;SDS011;16776;50.958;10.994;2024-01-11T12:41:34;27.73;;;14.43;;
29906;SDS011;16776;50.958;10.994;2024-01-11T12:44:01;31.23;;;17.40;;
29906;SDS011;16776;50.958;10.994;2024-01-11T12:46:28;34.83;;;16.15;;
29906;SDS011;16776;50.958;10.994;2024-01-11T12:48:55;37.75;;;17.63;;
29906;SDS011;16776;50.958;10.994;2024-01-11T12:51:21;34.30;;;16.85;;
29906;SDS011;16776;50.958;10.994;2024-01-11T12:53:50;28.38;;;14.20;;
29906;SDS011;16776;50.958;10.994;2024-01-11T12:56:19;29.10;;;14.98;;
29906;SDS011;16776;50.958;10.994;2024-01-11T12:58:47;27.85;;;13.77;;
29906;SDS011;16776;50.958;10.994;2024-01-11T13:01:14;27.73;;;13.73;;
29906;SDS011;16776;50.958;10.994;2024-01-11T13:03:43;27.15;;;13.73;;
29906;SDS011;16776;50.958;10.994;2024-01-11T13:06:11;30.38;;;15.32;;
29906;SDS011;16776;50.958;10.994;2024-01-11T13:08:38;26.40;;;15.10;;
29906;SDS011;16776;50.958;10.994;2024-01-11T13:11:06;28.33;;;15.00;;
29906;SDS011;16776;50.958;10.994;2024-01-11T13:13:35;29.27;;;15.00;;
29906;SDS011;16776;50.958;10.994;2024-01-11T13:16:02;24.55;;;12.80;;
29906;SDS011;16776;50.958;10.994;2024-01-11T13:18:31;29.00;;;14.13;;
29906;SDS011;16776;50.958;10.994;2024-01-11T13:20:58;28.45;;;14.20;;
29906;SDS011;16776;50.958;10.994;2024-01-11T13:23:24;25.75;;;13.70;;
29906;SDS011;16776;50.958;10.994;2024-01-11T13:25:51;27.77;;;14.90;;
29906;SDS011;16776;50.958;10.994;2024-01-11T13:28:17;25.83;;;13.57;;
29906;SDS011;16776;50.958;10.994;2024-01-11T13:30:46;26.02;;;14.43;;
29906;SDS011;16776;50.958;10.994;2024-01-11T13:33:14;27.65;;;15.55;;
29906;SDS011;16776;50.958;10.994;2024-01-11T13:35:42;24.80;;;13.00;;
29906;SDS011;16776;50.958;10.994;2024-01-11T13:38:09;22.42;;;12.77;;
29906;SDS011;16776;50.958;10.994;2024-01-11T13:40:36;24.52;;;12.77;;
29906;SDS011;16776;50.958;10.994;2024-01-11T13:43:05;26.30;;;13.32;;
29906;SDS011;16776;50.958;10.994;2024-01-11T13:45:31;20.50;;;11.52;;
29906;SDS011;16776;50.958;10.994;2024-01-11T13:48:02;21.50;;;12.27;;
29906;SDS011;16776;50.958;10.994;2024-01-11T13:50:29;24.58;;;12.80;;
29906;SDS011;16776;50.958;10.994;2024-01-11T13:52:57;26.83;;;12.15;;
29906;SDS011;16776;50.958;10.994;2024-01-11T13:55:23;23.20;;;10.32;;
29906;SDS011;16776;50.958;10.994;2024-01-11T13:57:50;24.13;;;12.35;;
29906;SDS011;16776;50.958;10.994;2024-01-11T14:00:17;25.33;;;11.73;;
29906;SDS011;16776;50.958;10.994;2024-01-11T14:02:45;20.70;;;10.40;;
29906;SDS011;16776;50.958;10.994;2024-01-11T14:05:13;18.27;;;9.98;;
29906;SDS011;16776;50.958;10.994;2024-01-11T14:07:41;18.10;;;9.88;;
29906;SDS011;16776;50.958;10.994;2024-01-11T14:10:09;18.90;;;9.25;;
29906;SDS011;16776;50.958;10.994;2024-01-11T14:12:37;18.25;;;8.95;;
29906;SDS011;16776;50.958;10.994;2024-01-11T14:15:05;20.80;;;9.95;;